Montalvania, Brazil
Current Conditions -  °F | °C
As of 2:00 AM on Thursday 23 Oct 2014 (Local Time) from SBMK Reporting Station
Clear Clear  
Wind Chill: 68°   Ceiling: Unl
Heat Index: 68°   Visibility: 6mi
Dew Point: 57°   Wind: 7mph
Humidity: 68%   Direction: 60°ENE
Pressure: 30.12"   Gusts: NA
Location:  14.43°S, 44.38°W
Report Text: SBMK 230400Z 06006KT CAVOK 20/14 Q1020
Loading
Personal Weather Stations






























Interactive Weather Map
Tropical Storm Tracking
New forecast layout! Learn more

10-Day Weather Forecast

Advertisements
Track Severe Weather on mobile